Lamont, Oklahoma
Current Conditions -  °F | °C
As of 10:55 AM on Thursday 23 Oct 2014 (Local Time) from KBKN Reporting Station
Few Clouds Few Clouds  
Wind Chill: 66°   Ceiling: Unl
Heat Index: 66°   Visibility: 10mi
Dew Point: 59°   Wind: 13mph
Humidity: 78%   Direction: 180°S
Pressure: 30.11"   Gusts: NA
Location:  36.69°N, 97.56°W
Report Text: KBKN 231555Z AUTO 18011KT 10SM FEW041 19/15 A3011 RMK AO2
Loading
Personal Weather Stations






























Interactive Weather Map
Tropical Storm Tracking
New forecast layout! Learn more

10-Day Weather Forecast

Advertisements
Track Severe Weather on mobile